createdAt,value
2022-12-25T00:00:27.729Z,100397.41
2022-12-25T00:03:16.823Z,100393.02
2022-12-25T00:05:45.363Z,100397.76
2022-12-25T00:08:13.714Z,100409.62
2022-12-25T00:10:45.368Z,100405.75
2022-12-25T00:13:14.040Z,100414.39
2022-12-25T00:15:42.374Z,100420.61
2022-12-25T00:18:10.738Z,100425.92
2022-12-25T00:20:39.069Z,100427.61
2022-12-25T00:23:07.352Z,100430.16
2022-12-25T00:25:40.513Z,100438.66
2022-12-25T00:28:08.863Z,100438.30
2022-12-25T00:30:40.946Z,100439.23
2022-12-25T00:33:09.262Z,100439.15
2022-12-25T00:35:37.660Z,100433.45
2022-12-25T00:38:06.020Z,100438.70
2022-12-25T00:40:34.366Z,100440.17
2022-12-25T00:43:02.739Z,100440.41
2022-12-25T00:45:31.133Z,100442.66
2022-12-25T00:47:59.573Z,100445.98
2022-12-25T00:50:27.952Z,100442.91
2022-12-25T00:52:56.359Z,100441.52
2022-12-25T00:55:24.688Z,100434.81
2022-12-25T00:57:53.005Z,100433.16
2022-12-25T01:00:23.690Z,100439.48
2022-12-25T01:02:52.135Z,100447.52
2022-12-25T01:05:20.714Z,100453.56
2022-12-25T01:07:49.054Z,100460.79
2022-12-25T01:10:23.296Z,100463.35
2022-12-25T01:12:51.886Z,100469.11
2022-12-25T01:15:20.439Z,100477.11
2022-12-25T01:17:48.760Z,100479.23
2022-12-25T01:20:18.604Z,100484.49
2022-12-25T01:22:47.009Z,100482.80
2022-12-25T01:25:15.443Z,100484.64
2022-12-25T01:27:43.773Z,100487.94
2022-12-25T01:30:12.440Z,100490.25
2022-12-25T01:32:40.854Z,100489.95
2022-12-25T01:35:09.480Z,100489.84
2022-12-25T01:37:37.975Z,100491.80
2022-12-25T01:40:07.969Z,100491.21
2022-12-25T01:42:36.742Z,100490.83
2022-12-25T01:45:42.206Z,100492.65
2022-12-25T01:48:19.831Z,100501.73
2022-12-25T01:50:58.910Z,100500.98
2022-12-25T01:53:27.683Z,100493.41
2022-12-25T01:56:03.996Z,100488.27
2022-12-25T01:58:32.619Z,100483.06
2022-12-25T02:01:01.035Z,100484.84
2022-12-25T02:03:29.543Z,100481.48
2022-12-25T02:05:59.330Z,100480.68
2022-12-25T02:08:27.753Z,100487.54
2022-12-25T02:10:56.094Z,100486.20
2022-12-25T02:13:24.641Z,100484.70
2022-12-25T02:16:28.800Z,100479.17
2022-12-25T02:19:06.122Z,100481.83
2022-12-25T02:22:00.881Z,100488.42
2022-12-25T02:24:53.409Z,100488.02
2022-12-25T02:27:51.851Z,100490.27
2022-12-25T02:30:20.596Z,100489.92
2022-12-25T02:33:28.329Z,100491.49
2022-12-25T02:35:57.826Z,100492.60
2022-12-25T02:39:04.340Z,100490.83
2022-12-25T02:41:39.504Z,100495.36
2022-12-25T02:44:34.911Z,100500.98
2022-12-25T02:47:25.412Z,100500.23
2022-12-25T02:50:15.553Z,100502.40
2022-12-25T02:53:21.210Z,100502.08
2022-12-25T02:56:09.384Z,100505.43
2022-12-25T02:58:59.277Z,100511.16
2022-12-25T03:01:51.486Z,100519.71
2022-12-25T03:04:42.810Z,100521.55
2022-12-25T03:07:20.986Z,100519.79
2022-12-25T03:10:19.219Z,100519.19
2022-12-25T03:12:57.010Z,100510.77
2022-12-25T03:15:44.787Z,100509.86
2022-12-25T03:18:19.143Z,100517.20
2022-12-25T03:21:06.093Z,100516.48
2022-12-25T03:23:56.369Z,100517.61
2022-12-25T03:26:46.970Z,100527.48
2022-12-25T03:29:35.264Z,100533.29
2022-12-25T03:32:17.743Z,100542.78
2022-12-25T03:35:22.967Z,100551.56
2022-12-25T03:38:39.933Z,100557.64
2022-12-25T03:41:35.230Z,100564.11
2022-12-25T03:44:37.529Z,100566.17
2022-12-25T03:47:48.777Z,100570.97
2022-12-25T03:50:53.424Z,100570.59
2022-12-25T03:53:50.078Z,100573.13
2022-12-25T03:56:38.093Z,100576.48
2022-12-25T03:59:24.978Z,100573.23
2022-12-25T04:02:12.077Z,100567.02
2022-12-25T04:04:59.094Z,100566.30
2022-12-25T04:07:45.784Z,100572.85
2022-12-25T04:10:33.006Z,100575.14
2022-12-25T04:13:20.274Z,100572.80
2022-12-25T04:16:07.425Z,100563.67
2022-12-25T04:18:54.872Z,100565.46
2022-12-25T04:21:42.618Z,100566.16
2022-12-25T04:24:30.172Z,100562.20
2022-12-25T04:27:17.389Z,100556.14
2022-12-25T04:30:07.845Z,100557.63
2022-12-25T04:32:54.844Z,100566.21
2022-12-25T04:35:41.808Z,100569.16
2022-12-25T04:38:10.101Z,100569.77
2022-12-25T04:40:38.455Z,100575.44
2022-12-25T04:43:06.953Z,100579.77
2022-12-25T04:45:35.319Z,100577.91
2022-12-25T04:48:03.903Z,100581.27
2022-12-25T04:50:32.229Z,100578.59
2022-12-25T04:53:00.532Z,100582.07
2022-12-25T04:55:29.105Z,100592.79
2022-12-25T04:57:57.470Z,100587.58
2022-12-25T05:00:25.778Z,100588.31
2022-12-25T05:02:54.275Z,100590.59
2022-12-25T05:05:22.849Z,100590.95
2022-12-25T05:07:51.297Z,100588.14
2022-12-25T05:10:20.282Z,100587.13
2022-12-25T05:12:48.640Z,100590.92
2022-12-25T05:15:17.092Z,100591.98
2022-12-25T05:17:45.393Z,100593.09
2022-12-25T05:20:13.717Z,100593.95
2022-12-25T05:22:42.658Z,100602.65
2022-12-25T05:25:10.950Z,100608.30
2022-12-25T05:27:39.297Z,100611.88
2022-12-25T05:30:09.853Z,100618.08
2022-12-25T05:32:38.259Z,100623.61
2022-12-25T05:35:08.820Z,100620.02
2022-12-25T05:37:37.208Z,100615.38
2022-12-25T05:40:06.567Z,100615.91
2022-12-25T05:42:34.989Z,100621.67
2022-12-25T05:45:03.562Z,100621.14
2022-12-25T05:47:31.904Z,100622.52
2022-12-25T05:50:00.227Z,100616.67
2022-12-25T05:52:33.525Z,100618.78
2022-12-25T05:55:02.078Z,100623.95
2022-12-25T05:57:31.863Z,100622.88
2022-12-25T06:00:00.233Z,100627.28
2022-12-25T06:02:28.754Z,100631.95
2022-12-25T06:04:57.231Z,100637.42
2022-12-25T06:07:25.624Z,100635.98
2022-12-25T06:09:54.046Z,100636.38
2022-12-25T06:12:22.444Z,100641.03
2022-12-25T06:14:50.807Z,100648.53
2022-12-25T06:17:19.078Z,100653.95
2022-12-25T06:19:47.361Z,100661.64
2022-12-25T06:22:15.692Z,100670.96
2022-12-25T06:24:44.154Z,100681.35
2022-12-25T06:27:12.557Z,100684.39
2022-12-25T06:29:40.941Z,100685.38
2022-12-25T06:32:09.237Z,100684.47
2022-12-25T06:34:37.681Z,100691.80
2022-12-25T06:37:06.047Z,100695.21
2022-12-25T06:39:34.416Z,100700.70
2022-12-25T06:42:02.853Z,100702.45
2022-12-25T06:44:31.223Z,100702.77
2022-12-25T06:46:59.864Z,100708.27
2022-12-25T06:49:28.334Z,100710.83
2022-12-25T06:51:56.752Z,100711.55
2022-12-25T06:54:25.135Z,100709.83
2022-12-25T06:56:53.606Z,100712.06
2022-12-25T06:59:22.161Z,100710.95
2022-12-25T07:01:57.618Z,100710.84
2022-12-25T07:04:40.220Z,100705.38
2022-12-25T07:07:09.725Z,100698.90
2022-12-25T07:09:39.104Z,100702.66
2022-12-25T07:12:19.813Z,100701.07
2022-12-25T07:14:50.935Z,100702.02
2022-12-25T07:17:20.624Z,100700.99
2022-12-25T07:19:49.382Z,100698.52
2022-12-25T07:22:18.055Z,100705.08
2022-12-25T07:24:46.401Z,100710.20
2022-12-25T07:27:14.698Z,100711.30
2022-12-25T07:29:42.963Z,100717.42
2022-12-25T07:32:11.459Z,100714.56
2022-12-25T07:34:39.946Z,100712.76
2022-12-25T07:37:08.305Z,100722.55
2022-12-25T07:39:36.620Z,100730.23
2022-12-25T07:42:05.029Z,100728.44
2022-12-25T07:44:33.339Z,100725.05
2022-12-25T07:47:01.920Z,100723.42
2022-12-25T07:49:30.440Z,100724.23
2022-12-25T07:51:58.951Z,100725.36
2022-12-25T07:54:27.227Z,100716.77
2022-12-25T07:56:55.539Z,100716.38
2022-12-25T07:59:23.849Z,100719.52
2022-12-25T08:01:52.267Z,100722.00
2022-12-25T08:04:20.935Z,100722.61
2022-12-25T08:06:49.271Z,100724.15
2022-12-25T08:09:17.716Z,100725.45
2022-12-25T08:11:47.388Z,100727.78
2022-12-25T08:14:15.937Z,100732.52
2022-12-25T08:16:44.675Z,100730.55
2022-12-25T08:19:14.572Z,100724.92
2022-12-25T08:21:42.930Z,100726.07
2022-12-25T08:24:11.737Z,100730.48
2022-12-25T08:26:40.088Z,100733.30
2022-12-25T08:29:08.447Z,100735.76
2022-12-25T08:31:42.441Z,100734.11
2022-12-25T08:34:14.741Z,100732.87
2022-12-25T08:36:43.114Z,100735.23
2022-12-25T08:39:11.462Z,100732.72
2022-12-25T08:41:40.295Z,100734.41
2022-12-25T08:44:11.486Z,100737.33
2022-12-25T08:46:39.987Z,100742.97
2022-12-25T08:49:08.481Z,100750.41
2022-12-25T08:51:37.367Z,100746.12
2022-12-25T08:54:05.775Z,100753.30
2022-12-25T08:56:34.263Z,100751.46
2022-12-25T08:59:02.789Z,100755.18
2022-12-25T09:01:31.197Z,100765.92
2022-12-25T09:03:59.639Z,100767.16
2022-12-25T09:06:28.033Z,100774.23
2022-12-25T09:08:56.449Z,100771.77
2022-12-25T09:11:24.809Z,100767.73
2022-12-25T09:13:53.052Z,100766.94
2022-12-25T09:16:22.596Z,100762.66
2022-12-25T09:18:51.509Z,100762.38
2022-12-25T09:21:20.027Z,100761.16
2022-12-25T09:23:48.403Z,100758.36
2022-12-25T09:26:18.805Z,100755.29
2022-12-25T09:28:51.883Z,100754.98
2022-12-25T09:31:23.065Z,100751.21
2022-12-25T09:33:55.558Z,100751.48
2022-12-25T09:36:24.768Z,100756.17
2022-12-25T09:38:53.163Z,100753.55
2022-12-25T09:41:48.192Z,100749.11
2022-12-25T09:44:28.747Z,100744.38
2022-12-25T09:47:05.109Z,100745.01
2022-12-25T09:50:01.579Z,100751.55
2022-12-25T09:52:48.421Z,100748.98
2022-12-25T09:55:23.014Z,100750.64
2022-12-25T09:58:01.489Z,100754.08
2022-12-25T10:00:40.168Z,100749.42
2022-12-25T10:03:36.402Z,100747.61
2022-12-25T10:06:17.505Z,100747.65
2022-12-25T10:09:12.839Z,100743.13
2022-12-25T10:12:11.257Z,100741.63
2022-12-25T10:15:04.435Z,100733.61
2022-12-25T10:17:57.157Z,100737.08
2022-12-25T10:20:48.188Z,100738.58
2022-12-25T10:23:26.153Z,100742.83
2022-12-25T10:25:55.061Z,100742.28
2022-12-25T10:28:39.912Z,100742.80
2022-12-25T10:31:28.438Z,100739.07
2022-12-25T10:33:57.520Z,100738.36
2022-12-25T10:36:28.933Z,100733.88
2022-12-25T10:38:58.199Z,100727.60
2022-12-25T10:41:51.849Z,100724.82
2022-12-25T10:44:24.625Z,100722.13
2022-12-25T10:46:59.578Z,100717.83
2022-12-25T10:49:39.561Z,100716.55
2022-12-25T10:52:28.939Z,100715.05
2022-12-25T10:54:57.324Z,100707.27
2022-12-25T10:57:29.237Z,100703.69
2022-12-25T10:59:57.657Z,100700.45
2022-12-25T11:02:34.705Z,100694.21
2022-12-25T11:05:17.326Z,100688.78
2022-12-25T11:07:54.206Z,100682.58
2022-12-25T11:10:53.417Z,100675.66
2022-12-25T11:13:28.605Z,100664.55
2022-12-25T11:16:13.536Z,100654.69
2022-12-25T11:18:48.767Z,100650.09
2022-12-25T11:21:25.374Z,100647.95
2022-12-25T11:24:03.884Z,100645.09
2022-12-25T11:26:48.846Z,100649.71
2022-12-25T11:29:49.258Z,100655.52
2022-12-25T11:32:43.493Z,100654.12
2022-12-25T11:35:15.789Z,100651.73
2022-12-25T11:37:54.266Z,100651.22
2022-12-25T11:40:36.036Z,100656.81
2022-12-25T11:43:23.697Z,100664.67
2022-12-25T11:46:08.460Z,100655.86
2022-12-25T11:48:47.729Z,100649.86
2022-12-25T11:51:18.073Z,100648.64
2022-12-25T11:53:52.558Z,100649.31
2022-12-25T11:56:26.148Z,100647.81
2022-12-25T11:59:00.970Z,100645.45
2022-12-25T12:01:42.911Z,100649.65
2022-12-25T12:04:42.245Z,100646.52
2022-12-25T12:07:25.401Z,100644.82
2022-12-25T12:10:19.452Z,100651.54
2022-12-25T12:13:02.536Z,100650.23
2022-12-25T12:15:49.541Z,100647.91
2022-12-25T12:18:29.077Z,100643.55
2022-12-25T12:21:16.407Z,100640.12
2022-12-25T12:24:05.897Z,100635.59
2022-12-25T12:26:38.213Z,100636.10
2022-12-25T12:29:21.966Z,100634.48
2022-12-25T12:31:51.714Z,100634.11
2022-12-25T12:34:42.862Z,100640.84
2022-12-25T12:37:34.357Z,100631.46
2022-12-25T12:40:05.824Z,100621.90
2022-12-25T12:42:48.560Z,100625.45
2022-12-25T12:45:24.236Z,100628.98
2022-12-25T12:47:53.855Z,100628.95
2022-12-25T12:50:37.455Z,100627.46
2022-12-25T12:53:30.207Z,100629.60
2022-12-25T12:56:18.401Z,100631.27
2022-12-25T12:58:50.978Z,100639.02
2022-12-25T13:01:42.706Z,100637.35
2022-12-25T13:04:30.251Z,100634.92
2022-12-25T13:07:32.607Z,100637.42
2022-12-25T13:10:42.355Z,100637.39
2022-12-25T13:13:40.817Z,100633.79
2022-12-25T13:16:44.031Z,100625.02
2022-12-25T13:19:19.556Z,100621.19
2022-12-25T13:22:03.956Z,100628.20
2022-12-25T13:24:37.412Z,100626.92
2022-12-25T13:27:27.567Z,100624.23
2022-12-25T13:29:56.730Z,100621.11
2022-12-25T13:32:33.624Z,100621.75
2022-12-25T13:35:02.204Z,100621.71
2022-12-25T13:37:31.701Z,100625.11
2022-12-25T13:40:04.275Z,100620.17
2022-12-25T13:42:36.395Z,100615.44
2022-12-25T13:45:21.136Z,100607.46
2022-12-25T13:47:55.178Z,100602.80
2022-12-25T13:50:32.353Z,100591.46
2022-12-25T13:53:14.190Z,100586.81
2022-12-25T13:55:47.171Z,100574.83
2022-12-25T13:58:26.682Z,100564.45
2022-12-25T14:01:00.777Z,100563.67
2022-12-25T14:03:43.195Z,100563.14
2022-12-25T14:06:40.787Z,100567.02
2022-12-25T14:09:11.368Z,100576.85
2022-12-25T14:11:45.746Z,100591.64
2022-12-25T14:14:26.052Z,100593.25
2022-12-25T14:16:59.256Z,100598.30
2022-12-25T14:19:34.008Z,100594.34
2022-12-25T14:22:20.826Z,100594.13
2022-12-25T14:24:49.668Z,100585.09
2022-12-25T14:27:30.339Z,100591.52
2022-12-25T14:30:00.645Z,100591.41
2022-12-25T14:32:33.880Z,100594.77
2022-12-25T14:35:03.746Z,100589.62
2022-12-25T14:37:34.073Z,100586.27
2022-12-25T14:40:20.150Z,100583.73
2022-12-25T14:43:01.685Z,100578.84
2022-12-25T14:45:40.708Z,100576.55
2022-12-25T14:48:25.189Z,100575.70
2022-12-25T14:51:09.021Z,100575.69
2022-12-25T14:53:49.438Z,100581.16
2022-12-25T14:56:21.493Z,100595.38
2022-12-25T14:58:54.932Z,100597.97
2022-12-25T15:01:33.295Z,100595.53
2022-12-25T15:04:11.575Z,100587.45
2022-12-25T15:07:08.379Z,100573.04
2022-12-25T15:09:37.775Z,100565.90
2022-12-25T15:12:06.424Z,100554.14
2022-12-25T15:14:38.382Z,100561.72
2022-12-25T15:17:06.799Z,100551.38
2022-12-25T15:19:39.027Z,100556.75
2022-12-25T15:22:12.736Z,100563.27
2022-12-25T15:24:41.076Z,100556.71
2022-12-25T15:27:18.510Z,100553.43
2022-12-25T15:32:35.716Z,100547.02
2022-12-25T15:35:05.142Z,100555.89
2022-12-25T15:37:33.455Z,100564.85
2022-12-25T15:40:02.320Z,100570.13
2022-12-25T15:42:30.979Z,100571.57
2022-12-25T15:44:59.299Z,100565.25
2022-12-25T15:47:27.571Z,100557.31
2022-12-25T15:49:55.986Z,100546.25
2022-12-25T15:52:24.330Z,100543.02
2022-12-25T15:54:54.188Z,100538.20
2022-12-25T15:57:23.084Z,100542.61
2022-12-25T15:59:53.858Z,100560.27
2022-12-25T16:02:22.451Z,100559.69
2022-12-25T16:04:51.249Z,100561.26
2022-12-25T16:07:23.602Z,100565.08
2022-12-25T16:09:52.325Z,100557.02
2022-12-25T16:12:21.002Z,100553.31
2022-12-25T16:14:49.332Z,100540.60
2022-12-25T16:17:17.748Z,100529.09
2022-12-25T16:19:46.165Z,100530.49
2022-12-25T16:22:21.687Z,100523.10
2022-12-25T16:24:50.183Z,100526.52
2022-12-25T16:27:18.729Z,100522.13
2022-12-25T16:29:47.439Z,100506.71
2022-12-25T16:32:16.774Z,100497.60
2022-12-25T16:34:45.126Z,100500.02
2022-12-25T16:37:13.499Z,100501.83
2022-12-25T16:39:41.823Z,100501.33
2022-12-25T16:42:10.205Z,100495.07
2022-12-25T16:44:38.582Z,100490.23
2022-12-25T16:47:06.954Z,100488.00
2022-12-25T16:49:35.602Z,100483.85
2022-12-25T16:52:04.786Z,100483.81
2022-12-25T16:54:33.162Z,100481.61
2022-12-25T16:57:01.584Z,100484.98
2022-12-25T16:59:30.728Z,100484.82
2022-12-25T17:01:59.065Z,100475.32
2022-12-25T17:04:27.717Z,100477.15
2022-12-25T17:06:57.058Z,100474.76
2022-12-25T17:09:25.650Z,100476.60
2022-12-25T17:11:53.957Z,100480.59
2022-12-25T17:14:22.271Z,100484.81
2022-12-25T17:16:51.211Z,100488.45
2022-12-25T17:19:22.624Z,100487.98
2022-12-25T17:21:52.098Z,100479.82
2022-12-25T17:24:21.824Z,100476.36
2022-12-25T17:26:50.165Z,100469.63
2022-12-25T17:29:22.042Z,100463.42
2022-12-25T17:31:51.416Z,100457.19
2022-12-25T17:34:20.018Z,100452.91
2022-12-25T17:36:48.388Z,100453.14
2022-12-25T17:39:16.777Z,100454.95
2022-12-25T17:41:45.308Z,100460.20
2022-12-25T17:44:13.711Z,100456.26
2022-12-25T17:46:42.538Z,100461.70
2022-12-25T17:49:16.587Z,100449.86
2022-12-25T17:51:46.241Z,100448.33
2022-12-25T17:54:14.873Z,100459.98
2022-12-25T17:56:43.376Z,100464.86
2022-12-25T17:59:18.412Z,100463.17
2022-12-25T18:01:48.157Z,100448.92
2022-12-25T18:04:16.831Z,100440.27
2022-12-25T18:06:45.689Z,100441.84
2022-12-25T18:09:14.141Z,100444.60
2022-12-25T18:11:43.697Z,100443.91
2022-12-25T18:14:15.600Z,100444.58
2022-12-25T18:16:46.706Z,100447.82
2022-12-25T18:19:15.782Z,100448.52
2022-12-25T18:21:44.238Z,100442.27
2022-12-25T18:24:12.625Z,100428.21
2022-12-25T18:26:40.985Z,100422.13
2022-12-25T18:29:09.363Z,100416.23
2022-12-25T18:31:37.923Z,100408.63
2022-12-25T18:34:06.392Z,100405.02
2022-12-25T18:36:34.753Z,100401.44
2022-12-25T18:39:03.352Z,100398.55
2022-12-25T18:41:31.789Z,100386.97
2022-12-25T18:44:00.205Z,100384.23
2022-12-25T18:46:28.701Z,100380.86
2022-12-25T18:48:57.496Z,100379.10
2022-12-25T18:51:29.863Z,100376.26
2022-12-25T18:54:03.281Z,100378.84
2022-12-25T18:56:31.808Z,100381.67
2022-12-25T18:59:00.854Z,100380.85
2022-12-25T19:01:29.499Z,100373.57
2022-12-25T19:04:04.720Z,100367.66
2022-12-25T19:06:34.187Z,100361.63
2022-12-25T19:09:09.070Z,100361.94
2022-12-25T19:11:46.490Z,100357.11
2022-12-25T19:14:15.563Z,100355.55
2022-12-25T19:16:44.565Z,100351.73
2022-12-25T19:19:14.557Z,100341.02
2022-12-25T19:21:43.208Z,100335.32
2022-12-25T19:24:11.645Z,100330.02
2022-12-25T19:26:39.991Z,100332.88
2022-12-25T19:29:08.361Z,100333.60
2022-12-25T19:31:38.170Z,100326.73
2022-12-25T19:34:07.045Z,100320.95
2022-12-25T19:36:36.194Z,100319.84
2022-12-25T19:39:06.885Z,100317.33
2022-12-25T19:41:35.260Z,100313.10
2022-12-25T19:44:05.011Z,100303.70
2022-12-25T19:46:37.689Z,100307.73
2022-12-25T19:49:07.849Z,100311.17
2022-12-25T19:51:41.455Z,100308.21
2022-12-25T19:54:14.662Z,100302.97
2022-12-25T19:56:43.408Z,100295.43
2022-12-25T19:59:15.672Z,100293.69
2022-12-25T20:01:44.125Z,100294.35
2022-12-25T20:04:12.580Z,100291.33
2022-12-25T20:06:42.690Z,100285.41
2022-12-25T20:09:21.079Z,100291.71
2022-12-25T20:11:50.059Z,100294.77
2022-12-25T20:14:19.697Z,100288.14
2022-12-25T20:16:48.315Z,100282.72
2022-12-25T20:19:16.793Z,100272.23
2022-12-25T20:21:45.886Z,100261.04
2022-12-25T20:24:14.411Z,100261.19
2022-12-25T20:26:45.357Z,100259.34
2022-12-25T20:29:15.975Z,100244.29
2022-12-25T20:31:44.417Z,100237.61
2022-12-25T20:34:12.875Z,100234.91
2022-12-25T20:36:41.403Z,100238.48
2022-12-25T20:39:12.806Z,100252.65
2022-12-25T20:41:41.316Z,100262.85
2022-12-25T20:44:10.391Z,100261.98
2022-12-25T20:46:38.970Z,100256.92
2022-12-25T20:49:07.426Z,100255.86
2022-12-25T20:51:35.938Z,100250.83
2022-12-25T20:54:09.748Z,100244.43
2022-12-25T20:56:38.305Z,100228.95
2022-12-25T20:59:06.679Z,100223.92
2022-12-25T21:01:35.283Z,100219.39
2022-12-25T21:04:03.895Z,100219.28
2022-12-25T21:06:32.340Z,100223.23
2022-12-25T21:09:00.831Z,100219.29
2022-12-25T21:11:31.381Z,100229.74
2022-12-25T21:13:59.867Z,100231.48
2022-12-25T21:16:28.883Z,100225.84
2022-12-25T21:18:57.363Z,100215.19
2022-12-25T21:21:25.759Z,100202.50
2022-12-25T21:23:56.865Z,100198.70
2022-12-25T21:26:28.616Z,100200.17
2022-12-25T21:29:00.501Z,100197.91
2022-12-25T21:31:30.812Z,100183.80
2022-12-25T21:33:59.573Z,100174.83
2022-12-25T21:36:31.866Z,100179.10
2022-12-25T21:39:07.536Z,100175.73
2022-12-25T21:41:38.366Z,100180.67
2022-12-25T21:44:08.985Z,100181.11
2022-12-25T21:46:37.323Z,100174.09
2022-12-25T21:49:05.836Z,100169.98
2022-12-25T21:51:53.215Z,100159.33
2022-12-25T21:54:23.076Z,100162.36
2022-12-25T21:56:51.662Z,100164.09
2022-12-25T21:59:21.896Z,100154.68
2022-12-25T22:01:52.279Z,100161.09
2022-12-25T22:04:23.119Z,100171.35
2022-12-25T22:07:10.595Z,100169.75
2022-12-25T22:09:39.031Z,100166.48
2022-12-25T22:12:33.541Z,100175.25
2022-12-25T22:15:09.742Z,100191.90
2022-12-25T22:18:01.865Z,100187.17
2022-12-25T22:20:38.444Z,100189.66
2022-12-25T22:23:06.816Z,100183.35
2022-12-25T22:25:35.192Z,100183.78
2022-12-25T22:28:03.692Z,100181.52
2022-12-25T22:30:32.071Z,100168.98
2022-12-25T22:33:00.486Z,100171.14
2022-12-25T22:35:28.808Z,100166.69
2022-12-25T22:37:57.135Z,100157.75
2022-12-25T22:40:25.477Z,100163.06
2022-12-25T22:42:55.522Z,100164.90
2022-12-25T22:45:24.313Z,100164.79
2022-12-25T22:47:52.702Z,100168.66
2022-12-25T22:50:21.086Z,100160.60
2022-12-25T22:52:49.421Z,100147.39
2022-12-25T22:55:20.183Z,100131.00
2022-12-25T22:57:49.073Z,100120.98
2022-12-25T23:00:17.563Z,100111.78
2022-12-25T23:02:46.124Z,100102.87
2022-12-25T23:05:14.730Z,100102.55
2022-12-25T23:07:43.117Z,100096.84
2022-12-25T23:10:11.616Z,100094.00
2022-12-25T23:12:58.818Z,100095.55
2022-12-25T23:15:28.095Z,100096.61
2022-12-25T23:18:15.012Z,100102.57
2022-12-25T23:21:01.863Z,100102.91
2022-12-25T23:23:48.688Z,100105.54
2022-12-25T23:26:20.133Z,100099.45
2022-12-25T23:29:06.777Z,100092.88
2022-12-25T23:31:40.625Z,100089.46
2022-12-25T23:34:10.392Z,100083.95
2022-12-25T23:36:40.278Z,100081.11
2022-12-25T23:39:10.461Z,100081.89
2022-12-25T23:41:41.430Z,100084.04
2022-12-25T23:44:13.786Z,100093.29
2022-12-25T23:46:52.388Z,100100.61
2022-12-25T23:49:23.936Z,100097.81
2022-12-25T23:51:53.825Z,100093.95
2022-12-25T23:54:26.336Z,100093.33
2022-12-25T23:56:57.594Z,100088.92
2022-12-25T23:59:29.868Z,100082.27
